Time;durP1;ratioP1;P1;durP2;ratioP2;P2;SDS_P1;SDS_P2;PMS_P1;PMS_P2;Temp;Humidity;BMP_temperature;BMP_pressure;BME280_temperature;BME280_humidity;BME280_pressure;Samples;Min_cycle;Max_cycle;Signal;HPM_P1;HPM_P2
2022/12/25 00:01:09;;;;;;;53.68;28.42;;;;;;;4.02;100.00;100261.94;1661530;85;21428;-70
2022/12/25 00:03:38;;;;;;;55.95;29.00;;;;;;;3.98;100.00;100266.83;1662027;86;21040;-71
2022/12/25 00:06:07;;;;;;;55.92;27.58;;;;;;;3.95;100.00;100265.79;1661448;85;21494;-73
2022/12/25 00:08:36;;;;;;;48.63;25.68;;;;;;;3.92;100.00;100270.17;1661628;86;21452;-72
2022/12/25 00:11:12;;;;;;;52.08;27.00;;;;;;;3.91;100.00;100269.83;1661883;86;21541;-71
2022/12/25 00:13:41;;;;;;;51.37;26.93;;;;;;;3.91;100.00;100275.75;1661899;86;21029;-71
2022/12/25 00:16:16;;;;;;;50.95;27.00;;;;;;;3.87;100.00;100275.69;1661447;86;21517;-71
2022/12/25 00:18:45;;;;;;;50.78;26.23;;;;;;;3.90;100.00;100278.08;1661655;86;21573;-72
2022/12/25 00:21:14;;;;;;;52.53;26.52;;;;;;;3.88;100.00;100282.81;1661853;86;21048;-70
2022/12/25 00:23:43;;;;;;;47.93;24.70;;;;;;;3.88;100.00;100278.23;1661769;85;21440;-73
2022/12/25 00:26:14;;;;;;;48.28;25.70;;;;;;;3.91;100.00;100282.02;1661490;86;21040;-70
2022/12/25 00:28:43;;;;;;;49.00;25.35;;;;;;;3.93;100.00;100284.58;1707124;84;21040;-73
2022/12/25 00:31:16;;;;;;;45.67;23.67;;;;;;;3.91;100.00;100284.73;1707206;84;21060;-67
2022/12/25 00:33:46;;;;;;;48.42;25.32;;;;;;;3.89;100.00;100285.36;1706772;84;21032;-73
2022/12/25 00:36:16;;;;;;;50.80;24.27;;;;;;;3.87;100.00;100286.02;1706928;84;21144;-70
2022/12/25 00:38:45;;;;;;;47.65;23.73;;;;;;;3.86;100.00;100288.39;1707136;84;21027;-72
2022/12/25 00:42:17;;;;;;;45.03;23.73;;;;;;;3.85;100.00;100292.61;1707098;83;21043;-72
2022/12/25 00:43:49;;;;;;;45.95;23.75;;;;;;;3.84;100.00;100293.12;1704729;84;21123;-73
2022/12/25 00:46:17;;;;;;;43.38;23.67;;;;;;;3.85;100.00;100296.17;1707315;83;21156;-71
2022/12/25 00:48:47;;;;;;;43.13;22.95;;;;;;;3.82;100.00;100298.69;1706784;84;21164;-71
2022/12/25 00:51:16;;;;;;;40.65;21.60;;;;;;;3.83;100.00;100294.13;1707149;84;21559;-70
2022/12/25 00:53:45;;;;;;;44.88;22.80;;;;;;;3.85;100.00;100289.91;1707360;83;21071;-73
2022/12/25 00:56:14;;;;;;;43.23;22.87;;;;;;;3.85;100.00;100296.17;1706992;83;21064;-73
2022/12/25 00:58:42;;;;;;;45.03;23.27;;;;;;;3.86;100.00;100290.25;1707017;84;21452;-76
2022/12/25 01:01:11;;;;;;;42.30;22.40;;;;;;;3.85;100.00;100303.45;1707382;83;21067;-73
2022/12/25 01:03:40;;;;;;;43.52;21.48;;;;;;;3.78;100.00;100300.52;1707084;84;21052;-72
2022/12/25 01:06:11;;;;;;;41.83;21.73;;;;;;;3.77;100.00;100302.88;1706796;84;21581;-70
2022/12/25 01:10:21;;;;;;;39.27;21.73;;;;;;;3.75;100.00;100304.89;1707266;83;21012;-72
2022/12/25 01:11:14;;;;;;;40.38;22.07;;;;;;;3.73;100.00;100317.75;1704619;84;21087;-72
2022/12/25 01:13:43;;;;;;;41.77;21.27;;;;;;;3.69;100.00;100313.65;1707057;84;21107;-71
2022/12/25 01:16:12;;;;;;;42.23;20.92;;;;;;;3.66;100.00;100313.95;1706808;84;21508;-71
2022/12/25 01:18:42;;;;;;;41.53;21.82;;;;;;;3.66;100.00;100318.02;1707372;83;21084;-70
2022/12/25 01:21:12;;;;;;;38.08;20.45;;;;;;;3.65;100.00;100319.03;1707245;84;21063;-69
2022/12/25 01:23:40;;;;;;;41.15;20.92;;;;;;;3.63;100.00;100319.69;1706896;84;21059;-70
2022/12/25 01:26:11;;;;;;;41.90;21.70;;;;;;;3.63;100.00;100320.55;1707243;84;21511;-68
2022/12/25 01:28:39;;;;;;;41.28;20.97;;;;;;;3.66;100.00;100324.30;1706956;83;21120;-68
2022/12/25 01:31:10;;;;;;;37.98;19.73;;;;;;;3.68;100.00;100318.72;1706950;84;21483;-69
2022/12/25 01:33:40;;;;;;;37.93;20.70;;;;;;;3.69;100.00;100324.48;1706840;84;21040;-69
2022/12/25 01:36:16;;;;;;;40.33;20.82;;;;;;;3.68;100.00;100318.72;1707335;84;21068;-69
2022/12/25 01:38:45;;;;;;;41.42;21.45;;;;;;;3.68;100.00;100312.80;1707123;83;21510;-71
2022/12/25 01:41:16;;;;;;;42.25;20.35;;;;;;;3.67;100.00;100321.94;1707214;84;21048;-70
2022/12/25 01:44:07;;;;;;;39.98;20.48;;;;;;;3.67;100.00;100324.64;1707163;83;21064;-70
2022/12/25 01:46:37;;;;;;;38.48;20.37;;;;;;;3.67;100.00;100319.73;1707123;83;21044;-70
2022/12/25 01:49:11;;;;;;;43.02;21.02;;;;;;;3.68;100.00;100324.14;1707032;84;21020;-69
2022/12/25 01:51:44;;;;;;;39.33;19.92;;;;;;;3.67;100.00;100324.64;1707283;84;21239;-69
2022/12/25 01:54:17;;;;;;;38.58;19.98;;;;;;;3.65;100.00;100329.87;1707226;84;21036;-71
2022/12/25 01:56:45;;;;;;;42.08;20.05;;;;;;;3.63;100.00;100330.53;1706936;84;21040;-69
2022/12/25 01:59:16;;;;;;;35.45;18.37;;;;;;;3.63;100.00;100325.96;1687470;84;21064;-71
2022/12/25 02:01:45;;;;;;;36.77;19.52;;;;;;;3.62;100.00;100328.82;1707370;83;21076;-71
2022/12/25 02:04:38;;;;;;;37.23;18.50;;;;;;;3.60;100.00;100324.06;1707287;84;21121;-70
2022/12/25 02:07:18;;;;;;;35.95;18.87;;;;;;;3.59;100.00;100320.50;1707474;83;21040;-71
2022/12/25 02:09:47;;;;;;;36.05;18.07;;;;;;;3.58;100.00;100327.43;1707394;84;21464;-69
2022/12/25 02:12:30;;;;;;;33.70;17.27;;;;;;;3.57;100.00;100328.44;1707412;83;21063;-71
2022/12/25 02:15:07;;;;;;;33.78;17.55;;;;;;;3.54;100.00;100321.97;1707064;83;21068;-69
2022/12/25 02:18:08;;;;;;;32.17;17.12;;;;;;;3.55;100.00;100326.38;1707327;84;21040;-70
2022/12/25 02:20:42;;;;;;;34.25;16.97;;;;;;;3.54;100.00;100331.45;1707230;83;21013;-70
2022/12/25 02:23:39;;;;;;;31.00;17.77;;;;;;;3.57;100.00;100340.62;1706900;83;21008;-72
2022/12/25 02:26:58;;;;;;;32.03;17.10;;;;;;;3.60;100.00;100337.61;1707396;84;21028;-69
2022/12/25 02:29:41;;;;;;;32.67;16.77;;;;;;;3.60;100.00;100336.25;1707334;84;21687;-69
2022/12/25 02:32:25;;;;;;;33.13;17.05;;;;;;;3.59;100.00;100337.27;1707137;84;21048;-70
2022/12/25 02:35:08;;;;;;;31.52;17.20;;;;;;;3.62;100.00;100345.08;1707286;84;21460;-67
2022/12/25 02:37:51;;;;;;;33.28;17.50;;;;;;;3.60;100.00;100338.46;1707386;83;21096;-71
2022/12/25 02:40:32;;;;;;;32.63;17.27;;;;;;;3.62;100.00;100346.43;1687782;84;21087;-71
2022/12/25 03:11:29;;;;;;;34.50;17.37;;;;;;;3.54;100.00;100366.67;1628645;88;21134;-71
2022/12/25 03:11:31;;;;;;;31.80;17.07;;;;;;;3.53;100.00;100373.94;1625532;88;21150;-70
2022/12/25 03:16:53;;;;;;;28.55;14.90;;;;;;;3.55;100.00;100385.48;1628300;88;21130;-70
2022/12/25 03:27:55;;;;;;;25.57;14.20;;;;;;;3.46;100.00;100396.72;1654969;84;21506;-68
2022/12/25 04:36:16;;;;;;;20.10;10.82;;;;;;;3.24;100.00;100447.20;1707210;84;21048;-65
2022/12/25 04:38:45;;;;;;;17.85;10.85;;;;;;;3.23;100.00;100441.44;1707481;83;21055;-69
2022/12/25 04:41:14;;;;;;;22.35;12.10;;;;;;;3.27;100.00;100450.14;1707323;84;21024;-69
2022/12/25 04:43:42;;;;;;;19.82;11.53;;;;;;;3.23;100.00;100448.20;1707081;84;21048;-68
2022/12/25 04:46:11;;;;;;;18.50;11.18;;;;;;;3.23;100.00;100450.05;1707019;84;21000;-68
2022/12/25 04:48:40;;;;;;;20.32;11.33;;;;;;;3.22;100.00;100454.63;1707095;83;21063;-67
2022/12/25 04:51:18;;;;;;;18.82;10.68;;;;;;;3.21;100.00;100454.27;1707359;83;21065;-69
2022/12/25 04:53:47;;;;;;;18.48;10.45;;;;;;;3.21;100.00;100462.39;1707212;84;21060;-70
2022/12/25 04:56:16;;;;;;;18.07;11.48;;;;;;;3.23;100.00;100468.51;1707313;84;21478;-68
2022/12/25 04:58:45;;;;;;;16.25;9.83;;;;;;;3.22;100.00;100465.45;1707408;84;21005;-70
2022/12/25 05:01:15;;;;;;;18.27;9.95;;;;;;;3.23;100.00;100463.59;1707272;84;21084;-70
2022/12/25 05:03:44;;;;;;;17.82;10.10;;;;;;;3.21;100.00;100474.58;1681290;84;21087;-69
2022/12/25 05:06:13;;;;;;;17.20;9.95;;;;;;;3.21;100.00;100471.87;1707118;84;21087;-69
2022/12/25 05:08:42;;;;;;;16.77;9.58;;;;;;;3.24;100.00;100475.62;1707325;83;21471;-71
2022/12/25 05:11:13;;;;;;;15.45;9.38;;;;;;;3.22;100.00;100468.16;1707335;83;21029;-71
2022/12/25 05:13:42;;;;;;;15.53;9.45;;;;;;;3.23;100.00;100476.63;1707125;84;21079;-71
2022/12/25 05:16:15;;;;;;;13.22;8.90;;;;;;;3.23;100.00;100479.34;1707302;84;21071;-70
2022/12/25 05:18:47;;;;;;;16.37;9.50;;;;;;;3.22;100.00;100488.47;1707162;84;21024;-69
2022/12/25 05:21:16;;;;;;;12.85;8.25;;;;;;;3.23;100.00;100487.46;1688174;84;21036;-70
2022/12/25 05:23:48;;;;;;;12.98;8.63;;;;;;;3.26;100.00;100485.84;1707421;84;21052;-71
2022/12/25 05:26:20;;;;;;;14.80;8.85;;;;;;;3.26;100.00;100484.48;1706996;84;21059;-71
2022/12/25 05:28:49;;;;;;;13.50;8.83;;;;;;;3.20;100.00;100486.41;1708004;84;21068;-71
2022/12/25 05:31:17;;;;;;;14.18;8.65;;;;;;;3.18;100.00;100488.41;1709461;84;21059;-72
2022/12/25 05:33:49;;;;;;;14.95;8.40;;;;;;;3.17;100.00;100498.38;1709318;84;21040;-69
2022/12/25 05:36:19;;;;;;;14.15;8.15;;;;;;;3.16;100.00;100501.23;1709326;84;21032;-69
2022/12/25 05:38:47;;;;;;;13.62;7.95;;;;;;;3.14;100.00;100510.01;1709194;84;21089;-69
2022/12/25 05:41:16;;;;;;;13.75;8.28;;;;;;;3.14;100.00;100512.72;1709172;84;21032;-73
2022/12/25 05:43:46;;;;;;;12.90;8.38;;;;;;;3.14;100.00;100517.63;1709384;84;21468;-71
2022/12/25 05:46:16;;;;;;;12.73;8.00;;;;;;;3.10;100.00;100516.22;1709415;84;21036;-68
2022/12/25 05:48:45;;;;;;;13.58;8.20;;;;;;;3.11;100.00;100521.13;1709258;84;21280;-71
2022/12/25 05:51:14;;;;;;;12.50;7.92;;;;;;;3.10;100.00;100520.28;1709473;84;21048;-67
2022/12/25 05:53:43;;;;;;;12.30;7.60;;;;;;;3.08;100.00;100520.92;1709484;84;21012;-70
2022/12/25 05:56:11;;;;;;;13.68;8.30;;;;;;;3.06;100.00;100524.78;1709445;84;21048;-70
2022/12/25 05:58:40;;;;;;;13.85;7.97;;;;;;;3.05;100.00;100527.13;1709469;84;21092;-69
2022/12/25 06:01:15;;;;;;;12.28;7.58;;;;;;;3.03;100.00;100532.69;1709234;84;21008;-70
2022/12/25 06:03:44;;;;;;;12.53;7.53;;;;;;;3.05;100.00;100533.40;1709463;84;21494;-71
2022/12/25 06:06:13;;;;;;;11.68;7.53;;;;;;;3.04;100.00;100535.75;1709196;84;21526;-69
2022/12/25 06:08:42;;;;;;;11.78;7.58;;;;;;;3.02;100.00;100536.90;1709394;84;21448;-69
2022/12/25 06:11:12;;;;;;;15.23;8.03;;;;;;;3.00;100.00;100548.38;1709333;84;21024;-69
2022/12/25 06:13:42;;;;;;;12.00;7.33;;;;;;;2.95;100.00;100550.66;1709445;84;21036;-70
2022/12/25 06:16:11;;;;;;;12.70;7.72;;;;;;;2.92;100.00;100548.24;1709287;84;21048;-70
2022/12/25 06:18:44;;;;;;;10.70;6.80;;;;;;;2.91;100.00;100547.39;1709194;84;21507;-69
2022/12/25 06:21:13;;;;;;;11.45;7.60;;;;;;;2.91;100.00;100562.27;1709061;84;21502;-69
2022/12/25 06:23:43;;;;;;;10.85;7.15;;;;;;;2.91;100.00;100560.92;1709399;83;21048;-69
2022/12/25 06:26:15;;;;;;;10.15;6.47;;;;;;;2.92;100.00;100563.98;1709118;84;21059;-71
2022/12/25 06:28:44;;;;;;;10.53;6.58;;;;;;;2.92;100.00;100574.80;1708872;84;21111;-71
2022/12/25 06:31:17;;;;;;;9.13;6.12;;;;;;;2.94;100.00;100576.02;1707356;83;21012;-73
2022/12/25 06:33:46;;;;;;;8.68;5.67;;;;;;;2.91;100.00;100581.72;1707466;84;21079;-69
2022/12/25 06:36:18;;;;;;;8.33;5.53;;;;;;;2.88;100.00;100590.13;1707177;84;21059;-70
2022/12/25 06:38:48;;;;;;;8.03;5.58;;;;;;;2.86;100.00;100580.80;1707173;84;21188;-70
2022/12/25 06:41:22;;;;;;;7.53;5.25;;;;;;;2.86;100.00;100584.36;1707402;84;21052;-71
2022/12/25 06:43:53;;;;;;;8.13;5.55;;;;;;;2.88;100.00;100587.41;1707182;84;21028;-70
2022/12/25 06:46:23;;;;;;;8.15;5.35;;;;;;;2.88;100.00;100595.53;1707197;84;21083;-69
2022/12/25 06:48:52;;;;;;;7.60;5.28;;;;;;;2.86;99.73;100591.62;1707345;84;21020;-70
2022/12/25 06:51:23;;;;;;;8.48;5.37;;;;;;;2.83;99.60;100601.38;1707296;83;21059;-69
2022/12/25 06:53:52;;;;;;;8.53;5.40;;;;;;;2.80;99.56;100601.16;1707241;84;21064;-68
2022/12/25 06:56:25;;;;;;;8.10;5.30;;;;;;;2.80;99.72;100595.75;1707120;84;21016;-69
2022/12/25 06:59:00;;;;;;;7.65;5.33;;;;;;;2.84;99.71;100608.50;1707108;84;21032;-68
2022/12/25 07:01:38;;;;;;;8.63;5.37;;;;;;;2.84;99.63;100616.11;1707483;83;21051;-70
2022/12/25 07:04:18;;;;;;;8.10;5.15;;;;;;;2.84;99.58;100622.02;1707236;84;21279;-69
2022/12/25 07:06:48;;;;;;;7.12;4.75;;;;;;;2.86;99.42;100623.59;1699493;84;21032;-71
2022/12/25 07:09:16;;;;;;;8.58;5.35;;;;;;;2.86;99.35;100627.66;1707027;84;21526;-67
2022/12/25 07:11:45;;;;;;;7.75;5.40;;;;;;;2.86;99.33;100632.20;1707257;83;21560;-70
2022/12/25 07:14:20;;;;;;;7.30;4.75;;;;;;;2.86;99.30;100643.03;1707050;83;21048;-70
2022/12/25 07:16:51;;;;;;;7.70;5.10;;;;;;;2.84;99.25;100637.77;1707140;84;21071;-66
2022/12/25 07:19:20;;;;;;;6.97;4.42;;;;;;;2.83;99.09;100637.41;1707079;83;21051;-69
2022/12/25 07:21:49;;;;;;;11.05;4.80;;;;;;;2.84;99.07;100645.88;1707125;84;21033;-69
2022/12/25 07:24:20;;;;;;;5.60;4.05;;;;;;;2.82;98.94;100643.81;1707104;84;21028;-71
2022/12/25 07:26:50;;;;;;;6.20;4.28;;;;;;;2.80;98.96;100646.30;1706992;84;21004;-67
2022/12/25 07:29:19;;;;;;;7.75;4.78;;;;;;;2.79;98.96;100646.80;1707926;83;21119;-68
2022/12/25 07:31:47;;;;;;;7.50;4.58;;;;;;;2.78;98.85;100649.16;1710181;83;21076;-68
2022/12/25 07:34:17;;;;;;;7.15;3.90;;;;;;;2.78;98.75;100655.92;1709849;84;21032;-71
2022/12/25 07:36:46;;;;;;;7.03;4.20;;;;;;;2.80;98.64;100657.13;1710013;84;21245;-66
2022/12/25 07:39:15;;;;;;;5.67;3.98;;;;;;;2.79;98.54;100661.69;1659272;84;21052;-71
2022/12/25 07:41:44;;;;;;;4.87;3.62;;;;;;;2.79;98.52;100664.39;1709870;83;21043;-68
2022/12/25 07:44:16;;;;;;;6.60;3.70;;;;;;;2.79;98.41;100660.34;1709842;83;21064;-67
2022/12/25 07:46:45;;;;;;;6.20;4.00;;;;;;;2.77;98.38;100658.27;1709884;84;21377;-69
2022/12/25 07:49:14;;;;;;;5.95;3.83;;;;;;;2.76;98.31;100661.97;1709990;84;21043;-69
2022/12/25 07:51:44;;;;;;;5.25;3.58;;;;;;;2.77;98.27;100669.59;1709715;84;21036;-69
2022/12/25 07:54:12;;;;;;;5.53;3.65;;;;;;;2.79;98.33;100681.13;1709759;84;21060;-69
2022/12/25 07:56:41;;;;;;;5.53;3.52;;;;;;;2.79;98.19;100675.72;1622063;87;21053;-70
2022/12/25 07:59:09;;;;;;;5.75;3.83;;;;;;;2.76;98.11;100677.34;1622243;88;21089;-71
2022/12/25 08:01:40;;;;;;;5.05;3.58;;;;;;;2.75;98.12;100681.91;1621848;87;21109;-71
2022/12/25 08:04:10;;;;;;;5.78;4.00;;;;;;;2.77;98.18;100675.86;1621876;87;21505;-69
2022/12/25 08:06:39;;;;;;;7.90;3.98;;;;;;;2.77;98.10;100667.73;1622076;88;21201;-73
2022/12/25 08:09:11;;;;;;;6.60;4.10;;;;;;;2.75;97.92;100675.14;1621934;88;21061;-70
2022/12/25 08:11:49;;;;;;;6.83;4.75;;;;;;;2.74;98.01;100676.14;1621755;88;21081;-69
2022/12/25 08:14:16;;;;;;;7.03;4.25;;;;;;;2.76;98.13;100672.80;1645732;84;21479;-71
2022/12/25 08:16:45;;;;;;;8.00;4.45;;;;;;;2.75;98.05;100675.64;1709926;84;21460;-69
2022/12/25 08:19:14;;;;;;;8.33;4.85;;;;;;;2.73;98.03;100676.28;1710092;84;21619;-72
2022/12/25 08:21:44;;;;;;;6.58;4.20;;;;;;;2.70;98.05;100676.56;1709933;84;21047;-67
2022/12/25 08:24:12;;;;;;;6.70;4.40;;;;;;;2.70;98.21;100684.17;1709857;84;21198;-67
2022/12/25 08:26:41;;;;;;;6.03;4.12;;;;;;;2.70;98.34;100682.83;1709909;84;21032;-68
2022/12/25 08:29:10;;;;;;;6.20;3.85;;;;;;;2.72;98.38;100682.19;1709768;83;21092;-66
2022/12/25 08:31:40;;;;;;;5.97;4.08;;;;;;;2.71;98.39;100684.53;1710037;84;21111;-70
2022/12/25 08:34:10;;;;;;;6.30;4.17;;;;;;;2.74;98.42;100680.70;1671339;84;21059;-68
2022/12/25 08:36:40;;;;;;;5.62;4.00;;;;;;;2.75;98.45;100690.02;1710071;84;21056;-69
2022/12/25 08:39:09;;;;;;;6.10;4.12;;;;;;;2.77;98.40;100693.44;1709888;84;21037;-70
2022/12/25 08:41:38;;;;;;;7.05;4.60;;;;;;;2.78;98.42;100695.16;1710046;84;21633;-67
2022/12/25 08:44:09;;;;;;;8.80;5.03;;;;;;;2.79;98.37;100696.01;1710114;84;21480;-68
2022/12/25 08:46:39;;;;;;;6.35;4.17;;;;;;;2.79;98.32;100696.01;1710035;83;21025;-69
2022/12/25 08:49:08;;;;;;;6.97;3.98;;;;;;;2.77;98.21;100698.86;1710000;84;21023;-69
2022/12/25 08:51:37;;;;;;;5.67;4.10;;;;;;;2.76;98.24;100697.14;1710073;83;21467;-69
2022/12/25 08:54:06;;;;;;;6.42;4.03;;;;;;;2.76;98.28;100699.85;1709902;83;21047;-69
2022/12/25 08:56:36;;;;;;;7.10;5.12;;;;;;;2.77;98.24;100706.12;1709833;84;21456;-69
2022/12/25 08:59:04;;;;;;;6.50;4.35;;;;;;;2.74;98.25;100711.31;1709899;83;21060;-68
2022/12/25 09:01:33;;;;;;;7.80;4.55;;;;;;;2.74;98.34;100710.45;1710154;84;21424;-70
2022/12/25 09:04:03;;;;;;;7.55;4.47;;;;;;;2.77;98.47;100708.82;1710028;83;21148;-70
2022/12/25 09:06:32;;;;;;;7.83;4.35;;;;;;;2.79;98.45;100721.22;1709763;83;21051;-71
2022/12/25 09:09:01;;;;;;;7.80;4.40;;;;;;;2.79;98.43;100709.04;1709804;84;21467;-71
2022/12/25 09:11:30;;;;;;;8.08;4.85;;;;;;;2.82;98.49;100708.76;1709966;83;21182;-70
2022/12/25 09:13:59;;;;;;;6.40;4.22;;;;;;;2.82;98.40;100718.23;1709958;84;21071;-72
2022/12/25 09:16:29;;;;;;;7.78;5.08;;;;;;;2.84;98.49;100714.88;1671240;84;21435;-71
2022/12/25 09:18:58;;;;;;;7.87;4.60;;;;;;;2.83;98.40;100711.82;1709912;83;21079;-70
2022/12/25 09:21:27;;;;;;;6.70;4.47;;;;;;;2.84;98.36;100713.53;1709772;84;21020;-68
2022/12/25 09:23:55;;;;;;;7.45;4.50;;;;;;;2.84;98.27;100720.30;1710042;83;21000;-68
2022/12/25 09:26:26;;;;;;;6.78;4.65;;;;;;;2.82;98.30;100720.94;1709808;83;21436;-69
2022/12/25 09:28:55;;;;;;;7.60;4.90;;;;;;;2.82;98.27;100721.43;1709824;84;21034;-66
2022/12/25 09:31:26;;;;;;;6.75;4.58;;;;;;;2.82;98.31;100728.20;1709656;84;21508;-67
2022/12/25 09:33:59;;;;;;;7.65;4.80;;;;;;;2.83;98.39;100728.06;1709760;83;21087;-69
2022/12/25 09:36:29;;;;;;;5.92;4.28;;;;;;;2.82;98.33;100730.41;1710045;83;21484;-66
2022/12/25 09:38:58;;;;;;;9.40;4.85;;;;;;;2.84;98.41;100735.18;1709823;84;21064;-70
2022/12/25 09:41:41;;;;;;;8.00;5.25;;;;;;;2.85;98.46;100738.24;1709732;83;21084;-69
2022/12/25 09:44:14;;;;;;;6.58;4.58;;;;;;;2.88;98.46;100741.66;1709575;84;21052;-69
2022/12/25 09:46:47;;;;;;;8.20;4.90;;;;;;;2.91;98.57;100749.50;1710035;84;21436;-69
2022/12/25 09:49:45;;;;;;;7.37;4.60;;;;;;;2.93;98.58;100747.02;1710598;82;21026;-70
2022/12/25 09:52:43;;;;;;;6.28;4.40;;;;;;;2.96;98.55;100746.73;1701137;82;21110;-68
2022/12/25 09:55:20;;;;;;;7.20;4.25;;;;;;;2.99;98.54;100753.72;1709628;83;21024;-66
2022/12/25 09:57:53;;;;;;;7.30;4.90;;;;;;;2.98;98.50;100746.59;1709710;84;21048;-67
2022/12/25 10:00:24;;;;;;;8.23;4.60;;;;;;;2.97;98.53;100745.73;1709848;84;21111;-66
2022/12/25 10:03:33;;;;;;;6.67;4.42;;;;;;;2.99;98.46;100754.58;1710145;84;21090;-68
2022/12/25 10:06:14;;;;;;;7.58;4.62;;;;;;;3.01;98.55;100751.23;1710006;83;21507;-67
2022/12/25 10:09:12;;;;;;;7.00;4.45;;;;;;;3.01;98.54;100751.23;1710098;84;21032;-68
2022/12/25 10:12:32;;;;;;;7.55;4.83;;;;;;;3.01;98.58;100749.02;1710003;83;21119;-67
2022/12/25 10:15:30;;;;;;;7.83;5.03;;;;;;;3.02;98.70;100753.44;1710104;83;21064;-66
2022/12/25 10:18:26;;;;;;;9.15;4.97;;;;;;;2.99;98.49;100753.72;1710463;84;21060;-66
2022/12/25 10:20:56;;;;;;;6.95;4.55;;;;;;;2.97;98.64;100754.36;1709995;83;21040;-67
2022/12/25 10:23:33;;;;;;;7.60;5.03;;;;;;;2.96;98.75;100753.50;1710051;84;21125;-68
2022/12/25 10:26:05;;;;;;;7.78;5.25;;;;;;;2.99;98.91;100751.02;1709868;83;21072;-69
2022/12/25 10:28:46;;;;;;;9.18;5.42;;;;;;;3.03;98.92;100752.44;1683125;84;21044;-66
2022/12/25 10:31:24;;;;;;;10.25;4.85;;;;;;;3.02;98.92;100751.59;1709464;84;21075;-68
2022/12/25 10:33:53;;;;;;;7.58;4.70;;;;;;;3.05;98.92;100743.68;1706284;83;21438;-68
2022/12/25 10:36:24;;;;;;;6.65;4.45;;;;;;;3.10;99.08;100750.38;1709859;83;21083;-68
2022/12/25 10:38:54;;;;;;;6.67;4.47;;;;;;;3.13;99.04;100753.30;1709831;83;21071;-66
2022/12/25 10:41:44;;;;;;;7.00;4.95;;;;;;;3.14;98.99;100746.89;1710040;83;21072;-66
2022/12/25 10:44:15;;;;;;;7.03;4.67;;;;;;;3.16;98.89;100753.02;1709263;84;21886;-68
2022/12/25 10:46:50;;;;;;;7.85;4.55;;;;;;;3.17;98.86;100758.80;1709724;83;21095;-67
2022/12/25 10:49:22;;;;;;;6.47;4.35;;;;;;;3.19;98.87;100764.92;1709769;84;21040;-68
2022/12/25 10:51:51;;;;;;;9.40;5.50;;;;;;;3.19;98.87;100773.91;1709865;83;21471;-66
2022/12/25 10:54:30;;;;;;;10.05;5.60;;;;;;;3.19;98.81;100775.75;1709949;83;21052;-68
2022/12/25 10:57:05;;;;;;;7.05;4.20;;;;;;;3.19;98.80;100777.11;1709758;83;21544;-67
2022/12/25 10:59:42;;;;;;;6.00;4.30;;;;;;;3.21;98.87;100785.95;1710043;84;21072;-67
2022/12/25 11:02:29;;;;;;;8.08;3.80;;;;;;;3.27;98.91;100784.56;1710001;84;21067;-64
2022/12/25 11:05:12;;;;;;;6.10;4.08;;;;;;;3.30;98.94;100795.11;1709915;83;21464;-68
2022/12/25 11:07:52;;;;;;;8.10;4.55;;;;;;;3.29;98.83;100792.89;1621992;87;21522;-67
2022/12/25 11:10:36;;;;;;;7.78;4.55;;;;;;;3.30;98.91;100791.91;1644397;87;21042;-68
2022/12/25 11:13:06;;;;;;;8.33;4.60;;;;;;;3.34;98.90;100801.45;1654885;87;21026;-68
2022/12/25 11:15:42;;;;;;;7.80;4.72;;;;;;;3.33;98.70;100798.39;1633549;87;21122;-67
2022/12/25 11:18:20;;;;;;;7.73;3.93;;;;;;;3.32;98.70;100796.68;1654578;85;21030;-67
2022/12/25 11:20:53;;;;;;;7.22;4.12;;;;;;;3.34;98.79;100791.12;1654881;85;21070;-65
2022/12/25 11:23:23;;;;;;;6.50;4.03;;;;;;;3.35;98.89;100792.33;1654703;87;21085;-66
2022/12/25 11:26:00;;;;;;;7.80;3.95;;;;;;;3.35;98.72;100793.69;1680014;84;21039;-68
2022/12/25 11:28:37;;;;;;;5.97;4.00;;;;;;;3.39;98.78;100792.41;1709931;83;21025;-66
2022/12/25 11:31:22;;;;;;;6.30;4.15;;;;;;;3.41;98.70;100799.89;1670728;85;21075;-65
2022/12/25 11:34:02;;;;;;;6.40;3.77;;;;;;;3.44;98.66;100798.75;1674496;85;21507;-66
2022/12/25 11:36:50;;;;;;;7.08;4.67;;;;;;;3.43;98.48;100797.03;1675147;85;21461;-66
2022/12/25 11:39:30;;;;;;;6.22;4.17;;;;;;;3.42;98.48;100804.81;1674871;86;21072;-64
2022/12/25 11:42:09;;;;;;;6.40;3.95;;;;;;;3.40;98.53;100804.95;1674705;85;21004;-65
2022/12/25 11:45:07;;;;;;;4.95;3.55;;;;;;;3.42;98.55;100804.31;1674805;86;21059;-67
2022/12/25 11:47:56;;;;;;;5.20;3.65;;;;;;;3.44;98.38;100808.23;1675038;86;21064;-66
2022/12/25 11:50:28;;;;;;;;;;;;;;;3.40;98.06;100806.30;1677262;86;21076;-67
2022/12/25 11:52:59;;;;;;;7.53;3.77;;;;;;;3.38;98.06;100811.50;1674897;86;20477;-66
2022/12/25 11:55:43;;;;;;;7.12;4.15;;;;;;;3.35;97.96;100814.00;1674692;85;21036;-65
2022/12/25 11:58:26;;;;;;;6.92;4.00;;;;;;;3.34;97.90;100819.05;1674733;85;21065;-66
2022/12/25 12:00:56;;;;;;;8.10;4.10;;;;;;;3.33;97.88;100813.78;1675032;86;21008;-65
2022/12/25 12:03:37;;;;;;;7.03;4.25;;;;;;;3.37;97.81;100821.98;1674837;85;21064;-65
2022/12/25 12:06:27;;;;;;;8.58;4.80;;;;;;;3.37;97.87;100821.48;1675104;85;21099;-65
2022/12/25 12:09:07;;;;;;;7.53;4.53;;;;;;;3.39;97.85;100824.91;1670801;85;21028;-65
2022/12/25 12:11:44;;;;;;;9.58;4.40;;;;;;;3.44;97.89;100824.48;1674212;85;21520;-66
2022/12/25 12:14:42;;;;;;;9.40;4.72;;;;;;;3.46;97.82;100830.11;1675047;86;21099;-68
2022/12/25 12:17:12;;;;;;;7.62;4.50;;;;;;;3.45;97.67;100827.55;1674764;85;21441;-68
2022/12/25 12:19:41;;;;;;;9.13;5.08;;;;;;;3.46;97.73;100835.53;1674822;85;21498;-66
2022/12/25 12:22:20;;;;;;;8.90;5.20;;;;;;;3.45;97.56;100841.95;1674827;86;21044;-65
2022/12/25 12:24:54;;;;;;;8.10;5.30;;;;;;;3.46;97.48;100844.16;1674428;85;21100;-64
2022/12/25 12:27:38;;;;;;;9.25;4.92;;;;;;;3.47;97.58;100844.02;1674343;85;21054;-68
2022/12/25 12:30:28;;;;;;;7.58;4.53;;;;;;;3.48;97.53;100844.38;1674898;84;21542;-67
2022/12/25 12:32:59;;;;;;;7.87;4.85;;;;;;;3.49;97.45;100847.44;1706572;84;21087;-66
2022/12/25 12:35:34;;;;;;;7.80;4.62;;;;;;;3.46;97.27;100849.58;1706953;83;21543;-66
2022/12/25 12:38:24;;;;;;;8.85;5.28;;;;;;;3.43;97.24;100864.26;1706905;84;21076;-66
2022/12/25 12:40:58;;;;;;;10.18;4.95;;;;;;;3.44;97.35;100875.45;1719391;83;21058;-65
2022/12/25 12:43:35;;;;;;;10.13;5.33;;;;;;;3.46;97.38;100880.23;1719499;83;21063;-67
2022/12/25 12:46:22;;;;;;;9.43;5.50;;;;;;;3.46;97.46;100882.94;1714588;83;21560;-66
2022/12/25 12:48:56;;;;;;;9.35;5.60;;;;;;;3.50;97.64;100884.37;1713730;84;21024;-66
2022/12/25 12:51:33;;;;;;;9.15;5.10;;;;;;;3.53;97.61;100872.39;1712319;84;21043;-66
2022/12/25 12:54:23;;;;;;;10.03;6.17;;;;;;;3.52;97.50;100877.95;1714221;84;21443;-68
2022/12/25 12:57:04;;;;;;;11.45;5.85;;;;;;;3.54;97.52;100875.96;1714080;84;21047;-66
2022/12/25 12:59:39;;;;;;;13.05;5.60;;;;;;;3.55;97.56;100877.67;1714323;84;21066;-64
2022/12/25 13:02:32;;;;;;;9.95;6.12;;;;;;;3.52;97.50;100880.16;1714114;84;21039;-66
2022/12/25 13:05:35;;;;;;;11.95;6.72;;;;;;;3.52;97.58;100887.44;1655130;84;21463;-68
2022/12/25 13:08:30;;;;;;;12.50;6.50;;;;;;;3.52;97.51;100888.80;1714028;84;21043;-66
2022/12/25 13:11:20;;;;;;;11.63;6.40;;;;;;;3.51;97.55;100896.06;1714103;84;21461;-66
2022/12/25 13:13:52;;;;;;;11.30;6.00;;;;;;;3.49;97.49;100898.91;1714171;84;21199;-67
2022/12/25 13:16:34;;;;;;;12.18;5.60;;;;;;;3.49;97.46;100900.77;1714298;84;21193;-67
2022/12/25 13:19:09;;;;;;;10.08;5.67;;;;;;;3.48;97.41;100907.18;1713990;84;21548;-66
2022/12/25 13:21:38;;;;;;;9.68;5.55;;;;;;;3.45;97.33;100904.25;1714085;84;21067;-66
2022/12/25 13:24:22;;;;;;;11.53;5.97;;;;;;;3.42;97.21;100900.97;1713869;84;21032;-66
2022/12/25 13:26:50;;;;;;;8.30;5.03;;;;;;;3.40;97.22;100907.87;1714263;84;21055;-68
2022/12/25 13:29:35;;;;;;;10.23;5.85;;;;;;;3.35;97.14;100909.29;1713294;83;21102;-66
2022/12/25 13:32:06;;;;;;;12.75;5.60;;;;;;;3.33;97.24;100911.28;1714066;84;21525;-67
2022/12/25 13:34:40;;;;;;;9.63;5.92;;;;;;;3.34;97.26;100920.63;1714346;84;21035;-65
2022/12/25 13:37:15;;;;;;;10.93;6.17;;;;;;;3.36;97.25;100925.90;1714077;84;21083;-66
2022/12/25 13:39:56;;;;;;;10.40;6.08;;;;;;;3.35;97.24;100926.89;1728417;82;21058;-67